sensor_id;sensor_type;location;lat;lon;timestamp;pressure;altitude;pressure_sealevel;temperature;humidity
73105;BME280;61296;50.526;30.792;2022-12-29T00:08:04;100125.09;;;0.72;83.28
73105;BME280;61296;50.526;30.792;2022-12-29T00:23:24;100091.59;;;0.35;83.19
73105;BME280;61296;50.526;30.792;2022-12-29T00:39:09;100067.09;;;0.45;82.55
73105;BME280;61296;50.526;30.792;2022-12-29T00:54:48;100021.25;;;0.35;81.57
73105;BME280;61296;50.526;30.792;2022-12-29T01:10:07;99966.19;;;0.26;80.00
73105;BME280;61296;50.526;30.792;2022-12-29T01:25:29;100073.53;;;0.96;79.11
73105;BME280;61296;50.526;30.792;2022-12-29T01:40:49;100026.91;;;0.99;78.24
73105;BME280;61296;50.526;30.792;2022-12-29T01:56:10;99960.16;;;0.62;76.18
73105;BME280;61296;50.526;30.792;2022-12-29T02:11:31;100013.84;;;1.14;74.95
73105;BME280;61296;50.526;30.792;2022-12-29T02:58:22;99953.78;;;0.99;73.07
73105;BME280;61296;50.526;30.792;2022-12-29T03:13:46;99946.16;;;0.87;72.87
73105;BME280;61296;50.526;30.792;2022-12-29T03:29:29;99890.69;;;0.57;73.75
73105;BME280;61296;50.526;30.792;2022-12-29T03:44:53;99946.72;;;0.70;74.94
73105;BME280;61296;50.526;30.792;2022-12-29T04:00:13;99953.94;;;0.47;75.46
73105;BME280;61296;50.526;30.792;2022-12-29T04:15:36;99836.72;;;-0.08;75.59
73105;BME280;61296;50.526;30.792;2022-12-29T04:30:55;99904.47;;;0.28;76.17
73105;BME280;61296;50.526;30.792;2022-12-29T04:46:21;99921.25;;;0.44;76.20
73105;BME280;61296;50.526;30.792;2022-12-29T05:01:57;99895.44;;;0.19;76.71
73105;BME280;61296;50.526;30.792;2022-12-29T05:17:16;99917.41;;;0.31;76.91
73105;BME280;61296;50.526;30.792;2022-12-29T09:57:08;99806.44;;;2.20;69.58
73105;BME280;61296;50.526;30.792;2022-12-29T10:28:04;99751.88;;;2.39;69.14
73105;BME280;61296;50.526;30.792;2022-12-29T10:43:27;99800.22;;;2.85;69.58
73105;BME280;61296;50.526;30.792;2022-12-29T10:58:48;99790.00;;;2.82;69.69
73105;BME280;61296;50.526;30.792;2022-12-29T11:14:17;99785.84;;;2.85;70.08
73105;BME280;61296;50.526;30.792;2022-12-29T11:29:41;99751.44;;;2.46;71.38
73105;BME280;61296;50.526;30.792;2022-12-29T11:45:06;99734.75;;;2.13;71.94
73105;BME280;61296;50.526;30.792;2022-12-29T12:00:36;99797.44;;;2.51;72.10
73105;BME280;61296;50.526;30.792;2022-12-29T12:16:08;99792.16;;;2.46;71.94
73105;BME280;61296;50.526;30.792;2022-12-29T13:18:27;99765.16;;;2.49;72.39
73105;BME280;61296;50.526;30.792;2022-12-29T13:33:56;99792.03;;;2.51;72.85
73105;BME280;61296;50.526;30.792;2022-12-29T13:49:21;99797.97;;;2.62;72.51
73105;BME280;61296;50.526;30.792;2022-12-29T14:05:02;99757.94;;;2.36;72.33
73105;BME280;61296;50.526;30.792;2022-12-29T14:20:23;99738.56;;;2.12;72.77
73105;BME280;61296;50.526;30.792;2022-12-29T14:35:44;99787.69;;;2.50;72.48
73105;BME280;61296;50.526;30.792;2022-12-29T14:51:25;99733.97;;;2.21;72.99
73105;BME280;61296;50.526;30.792;2022-12-29T15:06:49;99784.50;;;2.48;72.71
73105;BME280;61296;50.526;30.792;2022-12-29T15:22:08;99732.44;;;1.97;73.19
73105;BME280;61296;50.526;30.792;2022-12-29T15:37:37;99810.28;;;2.28;73.48
73105;BME280;61296;50.526;30.792;2022-12-29T15:52:57;99776.88;;;2.19;73.77
73105;BME280;61296;50.526;30.792;2022-12-29T16:08:31;99757.00;;;1.92;74.78
73105;BME280;61296;50.526;30.792;2022-12-29T16:24:00;99666.47;;;1.40;75.28
73105;BME280;61296;50.526;30.792;2022-12-29T16:39:28;99741.44;;;1.76;75.85
73105;BME280;61296;50.526;30.792;2022-12-29T16:54:56;99740.16;;;1.73;76.05
73105;BME280;61296;50.526;30.792;2022-12-29T17:10:18;99729.56;;;1.63;76.52
73105;BME280;61296;50.526;30.792;2022-12-29T17:25:37;99716.38;;;1.39;77.08
73105;BME280;61296;50.526;30.792;2022-12-29T17:40:57;99722.59;;;1.39;77.66
73105;BME280;61296;50.526;30.792;2022-12-29T17:56:18;99718.34;;;1.25;78.11
73105;BME280;61296;50.526;30.792;2022-12-29T18:11:41;99705.00;;;1.06;79.40
73105;BME280;61296;50.526;30.792;2022-12-29T18:27:08;99679.19;;;1.08;79.02
73105;BME280;61296;50.526;30.792;2022-12-29T18:42:29;99685.59;;;1.12;79.17
73105;BME280;61296;50.526;30.792;2022-12-29T18:57:50;99682.16;;;1.21;79.04
73105;BME280;61296;50.526;30.792;2022-12-29T19:13:17;99666.47;;;1.09;79.03
73105;BME280;61296;50.526;30.792;2022-12-29T19:28:37;99703.19;;;1.24;78.74
73105;BME280;61296;50.526;30.792;2022-12-29T19:43:57;99641.78;;;0.88;78.37
73105;BME280;61296;50.526;30.792;2022-12-29T19:59:16;99672.47;;;1.28;78.22
73105;BME280;61296;50.526;30.792;2022-12-29T20:14:36;99679.44;;;1.52;78.06
73105;BME280;61296;50.526;30.792;2022-12-29T20:29:55;99625.34;;;1.07;78.14
73105;BME280;61296;50.526;30.792;2022-12-29T20:45:15;99648.41;;;1.27;78.29
73105;BME280;61296;50.526;30.792;2022-12-29T21:00:35;99646.84;;;1.34;78.09
73105;BME280;61296;50.526;30.792;2022-12-29T21:16:04;99631.63;;;1.47;77.32
73105;BME280;61296;50.526;30.792;2022-12-29T21:31:37;99655.34;;;1.81;76.97
73105;BME280;61296;50.526;30.792;2022-12-29T21:46:56;99619.97;;;1.55;76.70
73105;BME280;61296;50.526;30.792;2022-12-29T22:02:22;99651.00;;;1.71;76.51
73105;BME280;61296;50.526;30.792;2022-12-29T22:18:01;99651.16;;;1.75;76.61
73105;BME280;61296;50.526;30.792;2022-12-29T22:33:21;99656.38;;;1.63;77.19
73105;BME280;61296;50.526;30.792;2022-12-29T22:48:40;99635.13;;;1.56;76.82
73105;BME280;61296;50.526;30.792;2022-12-29T23:03:59;99602.69;;;1.34;77.26
73105;BME280;61296;50.526;30.792;2022-12-29T23:19:18;99595.59;;;1.15;77.67
73105;BME280;61296;50.526;30.792;2022-12-29T23:34:37;99647.63;;;1.35;78.24
73105;BME280;61296;50.526;30.792;2022-12-29T23:49:57;99614.19;;;1.08;78.37
